Lytton, British Columbia

10:23 PM PDT on October 25, 2014 (GMT -0700)
Kamloops | Change Station
CLOSE
Current Station
Airport
Location: Kamloops,
Elevation: 1132 ft
Nearby Weather Stations

Elev 1132 ft 50.70 °N, 120.44 °W | Updated 6 minutes ago

Overcast
Overcast
48 °F
Feels Like 48 °F
N
14
Wind Variable Wind from East
Gusts 22 mph

Tomorrow is forecast to be nearly the same temperature as today.

Today
High -- | Low -- °F
--% Chance of Precip.
Yesterday
High -- | Low -- °F
Precip. -- in
7:45 AM 5:54 PM
Waxing Crescent, 6% visible
Pressure 29.37 in
Visibility 25.0 miles
Clouds Few 2000 ft
Scattered Clouds 6000 ft
Mostly Cloudy 8000 ft
Overcast 10000 ft
Dew Point 41 °F
Humidity 76%
Rainfall 0.00 in
Snow Depth Not available.
UV 0 out of 12
Pollen Not available.
Air Quality Not available.
Flu Activity Not available.
SPECI CYKA 260517Z 10012G19KT 25SM FEW020 SCT060 BKN080 OVC100 09/05 A2934 RMK SF1SC3AC2AC2 SLP944 DENSITY ALT 1300FT

More Conditions Fewer Conditions

Pressure 29.37 in
Visibility 25.0 miles
Clouds Few 2000 ft
Scattered Clouds 6000 ft
Mostly Cloudy 8000 ft
Overcast 10000 ft
Dew Point 41 °F
Humidity 76%
Rainfall 0.00 in
Snow Depth Not available.
UV 0 out of 12
Pollen Not available.
Air Quality Not available.
Flu Activity Not available.
SPECI CYKA 260517Z 10012G19KT 25SM FEW020 SCT060 BKN080 OVC100 09/05 A2934 RMK SF1SC3AC2AC2 SLP944 DENSITY ALT 1300FT

More Conditions Fewer Conditions

10-Day Weather Forecast

Almanac

Astronomy

Oct. 25, 2014 Rise Set
Actual Time 7:45 AM PDT 5:54 PM PDT
Civil Twilight 7:11 AM PDT 6:28 PM PDT
Nautical Twilight 6:33 AM PDT 7:06 PM PDT
Astronomical Twilight 5:56 AM PDT 7:43 PM PDT
Moon 9:37 AM PDT (10/25) 7:12 PM PDT (10/25)
Length of Visible Light 11h 16m
Length of Day
10h 09m
Tomorrow will be 3m 31s shorter.
Waxing Crescent, 6% of the Moon is Illuminated
Oct 26
Waxing Crescent
Oct 30
First Quarter
Nov 6
Full
Nov 14
Last Quarter
Nov 22
New

Today's Extremes

Country Highs Country Lows

Community

WunderPhotos

Upload Photos

1,765,112 photos uploaded!

Nearby

Snow Depth

Not available.

Earthquake Activity

City Distance Mag. Time & Date
Birch Bay, Washington 111 miles 2.8 3:02 AM PDT
2014-10-24
Minimum magnitude displayed is 2.5.

Coastal Water Temperatures

Place Temperature
No Stations Reporting

Nearby Weather Stations